createdAt,value
2017-10-14T00:00:21.785Z,86.70
2017-10-14T00:01:24.307Z,86.60
2017-10-14T00:02:26.841Z,86.80
2017-10-14T00:03:30.138Z,87.00
2017-10-14T00:04:33.475Z,86.80
2017-10-14T00:05:36.000Z,86.90
2017-10-14T00:06:38.547Z,86.90
2017-10-14T00:07:41.843Z,87.00
2017-10-14T00:08:44.377Z,87.00
2017-10-14T00:09:46.946Z,86.90
2017-10-14T00:10:49.607Z,86.80
2017-10-14T00:11:52.145Z,87.20
2017-10-14T00:12:54.681Z,86.80
2017-10-14T00:13:57.214Z,86.80
2017-10-14T00:14:59.790Z,86.50
2017-10-14T00:16:03.101Z,87.20
2017-10-14T00:17:05.635Z,86.40
2017-10-14T00:18:08.154Z,86.60
2017-10-14T00:19:10.677Z,86.50
2017-10-14T00:20:14.026Z,86.40
2017-10-14T00:21:16.558Z,86.40
2017-10-14T00:22:19.082Z,86.40
2017-10-14T00:23:22.386Z,86.90
2017-10-14T00:24:25.674Z,86.60
2017-10-14T00:25:28.255Z,86.60
2017-10-14T00:26:30.785Z,86.40
2017-10-14T00:27:34.090Z,86.30
2017-10-14T00:28:36.623Z,86.30
2017-10-14T00:29:39.150Z,86.10
2017-10-14T00:30:41.716Z,86.30
2017-10-14T00:31:44.265Z,86.30
2017-10-14T00:32:47.554Z,86.40
2017-10-14T00:33:50.937Z,86.40
2017-10-14T00:34:53.474Z,86.20
2017-10-14T00:35:56.799Z,86.20
2017-10-14T00:36:59.322Z,86.10
2017-10-14T00:38:02.607Z,86.20
2017-10-14T00:39:05.899Z,86.10
2017-10-14T00:40:09.203Z,86.00
2017-10-14T00:41:11.772Z,86.00
2017-10-14T00:42:14.305Z,85.80
2017-10-14T00:43:17.598Z,85.70
2017-10-14T00:44:20.891Z,85.70
2017-10-14T00:45:23.438Z,85.70
2017-10-14T00:46:26.794Z,85.80
2017-10-14T00:47:29.349Z,85.80
2017-10-14T00:48:31.875Z,85.80
2017-10-14T00:49:34.409Z,85.70
2017-10-14T00:50:36.928Z,85.80
2017-10-14T00:51:39.507Z,86.00
2017-10-14T00:52:42.034Z,86.00
2017-10-14T00:53:44.570Z,86.10
2017-10-14T00:54:47.098Z,86.00
2017-10-14T00:55:49.623Z,86.10
2017-10-14T00:56:53.221Z,86.10
2017-10-14T00:57:56.540Z,86.00
2017-10-14T00:58:59.053Z,85.90
2017-10-14T01:00:02.363Z,86.00
2017-10-14T01:01:04.898Z,86.00
2017-10-14T01:02:07.461Z,86.00
2017-10-14T01:03:09.994Z,85.60
2017-10-14T01:04:12.525Z,86.00
2017-10-14T01:05:15.055Z,86.10
2017-10-14T01:06:17.591Z,86.20
2017-10-14T01:07:20.161Z,86.00
2017-10-14T01:08:22.686Z,86.00
2017-10-14T01:09:25.978Z,85.90
2017-10-14T01:10:28.510Z,85.90
2017-10-14T01:11:31.041Z,85.90
2017-10-14T01:12:33.613Z,85.90
2017-10-14T01:13:36.142Z,85.90
2017-10-14T01:14:38.669Z,85.70
2017-10-14T01:15:41.194Z,85.80
2017-10-14T01:16:44.441Z,86.00
2017-10-14T01:17:47.796Z,86.00
2017-10-14T01:18:50.346Z,86.10
2017-10-14T01:19:52.887Z,86.20
2017-10-14T01:20:55.460Z,86.30
2017-10-14T01:21:57.995Z,86.20
2017-10-14T01:23:01.338Z,86.30
2017-10-14T01:24:03.862Z,86.20
2017-10-14T01:25:06.387Z,86.40
2017-10-14T01:26:08.918Z,86.20
2017-10-14T01:27:11.457Z,86.20
2017-10-14T01:28:14.007Z,86.20
2017-10-14T01:29:17.323Z,86.20
2017-10-14T01:30:19.839Z,86.10
2017-10-14T01:31:22.357Z,86.20
2017-10-14T01:32:24.934Z,87.10
2017-10-14T01:33:27.473Z,86.30
2017-10-14T01:34:30.010Z,86.20
2017-10-14T01:35:33.307Z,86.10
2017-10-14T01:36:35.843Z,86.10
2017-10-14T01:37:38.381Z,86.10
2017-10-14T01:38:40.918Z,86.10
2017-10-14T01:39:43.445Z,86.10
2017-10-14T01:40:46.117Z,86.10
2017-10-14T01:41:49.418Z,85.80
2017-10-14T01:42:52.847Z,86.60
2017-10-14T01:43:55.379Z,86.50
2017-10-14T01:44:57.910Z,86.50
2017-10-14T01:46:00.449Z,86.40
2017-10-14T01:47:02.990Z,86.30
2017-10-14T01:48:05.540Z,86.30
2017-10-14T01:49:08.834Z,86.50
2017-10-14T01:50:11.362Z,86.50
2017-10-14T01:51:13.895Z,86.70
2017-10-14T01:52:16.422Z,86.50
2017-10-14T01:53:18.992Z,86.40
2017-10-14T01:54:21.521Z,86.50
2017-10-14T01:55:24.045Z,86.70
2017-10-14T01:56:26.573Z,86.40
2017-10-14T01:57:29.866Z,86.40
2017-10-14T01:58:33.209Z,86.40
2017-10-14T01:59:35.729Z,86.40
2017-10-14T02:00:38.250Z,86.40
2017-10-14T02:01:40.794Z,86.30
2017-10-14T02:02:43.330Z,86.30
2017-10-14T02:03:45.893Z,86.30
2017-10-14T02:04:48.425Z,86.30
2017-10-14T02:05:50.962Z,86.40
2017-10-14T02:06:53.518Z,86.10
2017-10-14T02:07:56.048Z,86.20
2017-10-14T02:08:59.337Z,86.30
2017-10-14T02:10:01.867Z,86.20
2017-10-14T02:11:04.435Z,86.30
2017-10-14T02:12:06.959Z,86.30
2017-10-14T02:13:09.504Z,86.20
2017-10-14T02:14:12.044Z,86.00
2017-10-14T02:15:15.350Z,85.90
2017-10-14T02:16:17.918Z,85.90
2017-10-14T02:17:20.437Z,85.90
2017-10-14T02:18:22.966Z,85.80
2017-10-14T02:19:25.488Z,85.90
2017-10-14T02:20:28.027Z,85.90
2017-10-14T02:21:30.586Z,85.70
2017-10-14T02:22:33.131Z,85.60
2017-10-14T02:23:35.661Z,85.50
2017-10-14T02:24:38.981Z,85.70
2017-10-14T02:25:41.570Z,85.60
2017-10-14T02:26:44.094Z,85.80
2017-10-14T02:27:46.634Z,85.40
2017-10-14T02:28:49.322Z,85.50
2017-10-14T02:29:52.621Z,85.50
2017-10-14T02:30:55.292Z,85.50
2017-10-14T02:31:57.834Z,85.20
2017-10-14T02:33:01.141Z,85.30
2017-10-14T02:34:03.687Z,85.30
2017-10-14T02:35:06.984Z,85.10
2017-10-14T02:36:09.554Z,85.10
2017-10-14T02:37:12.077Z,85.40
2017-10-14T02:38:14.649Z,85.10
2017-10-14T02:39:17.181Z,85.20
2017-10-14T02:40:19.718Z,85.20
2017-10-14T02:41:22.244Z,85.30
2017-10-14T02:42:24.788Z,85.30
2017-10-14T02:43:27.347Z,85.30
2017-10-14T02:44:29.866Z,85.30
2017-10-14T02:45:32.408Z,85.20
2017-10-14T02:46:34.954Z,85.40
2017-10-14T02:47:37.490Z,85.30
2017-10-14T02:48:40.054Z,85.20
2017-10-14T02:49:42.605Z,85.30
2017-10-14T02:50:45.187Z,85.20
2017-10-14T02:51:47.708Z,85.10
2017-10-14T02:52:50.239Z,85.30
2017-10-14T02:53:52.761Z,85.10
2017-10-14T02:54:56.084Z,84.70
2017-10-14T02:55:58.635Z,84.70
2017-10-14T02:57:01.161Z,84.70
2017-10-14T02:58:04.485Z,85.60
2017-10-14T02:59:07.006Z,84.80
2017-10-14T03:00:09.529Z,85.00
2017-10-14T03:01:12.050Z,84.90
2017-10-14T03:02:15.365Z,85.10
2017-10-14T03:03:17.923Z,85.10
2017-10-14T03:04:20.466Z,85.10
2017-10-14T03:05:23.771Z,85.10
2017-10-14T03:06:26.313Z,85.10
2017-10-14T03:07:29.645Z,85.70
2017-10-14T03:08:32.166Z,85.00
2017-10-14T03:09:35.474Z,85.10
2017-10-14T03:10:38.046Z,85.10
2017-10-14T03:11:40.578Z,85.10
2017-10-14T03:12:43.100Z,85.20
2017-10-14T03:13:45.634Z,85.30
2017-10-14T03:14:48.197Z,85.30
2017-10-14T03:15:50.766Z,85.10
2017-10-14T03:16:53.292Z,85.00
2017-10-14T03:17:55.827Z,85.20
2017-10-14T03:18:58.356Z,85.40
2017-10-14T03:20:01.660Z,85.30
2017-10-14T03:21:04.246Z,85.30
2017-10-14T03:22:06.779Z,86.00
2017-10-14T03:23:09.318Z,85.00
2017-10-14T03:24:11.856Z,85.10
2017-10-14T03:25:14.392Z,84.90
2017-10-14T03:26:17.053Z,85.00
2017-10-14T03:27:19.579Z,85.10
2017-10-14T03:28:22.111Z,85.10
2017-10-14T03:29:24.683Z,84.90
2017-10-14T03:30:27.247Z,85.10
2017-10-14T03:31:29.773Z,85.30
2017-10-14T03:32:32.298Z,85.20
2017-10-14T03:33:34.829Z,85.00
2017-10-14T03:34:37.394Z,85.10
2017-10-14T03:35:39.925Z,85.30
2017-10-14T03:36:43.782Z,85.20
2017-10-14T03:37:46.324Z,85.20
2017-10-14T03:38:48.856Z,85.20
2017-10-14T03:39:52.174Z,85.10
2017-10-14T03:40:54.706Z,85.10
2017-10-14T03:41:58.034Z,85.30
2017-10-14T03:43:01.341Z,85.10
2017-10-14T03:44:03.870Z,85.30
2017-10-14T03:45:06.395Z,85.10
2017-10-14T03:46:08.926Z,85.10
2017-10-14T03:47:11.504Z,85.30
2017-10-14T03:48:14.028Z,85.10
2017-10-14T03:49:16.568Z,85.10
2017-10-14T03:50:19.871Z,84.80
2017-10-14T03:51:22.390Z,84.80
2017-10-14T03:52:24.952Z,84.90
2017-10-14T03:53:27.491Z,84.80
2017-10-14T03:54:30.015Z,84.80
2017-10-14T03:55:33.326Z,84.80
2017-10-14T03:56:35.850Z,84.80
2017-10-14T03:57:38.416Z,84.80
2017-10-14T03:58:40.939Z,84.80
2017-10-14T03:59:43.477Z,85.10
2017-10-14T04:00:46.789Z,84.90
2017-10-14T04:01:49.330Z,84.90
2017-10-14T04:02:51.895Z,85.00
2017-10-14T04:03:54.462Z,85.00
2017-10-14T04:04:57.746Z,85.00
2017-10-14T04:06:00.279Z,85.00
2017-10-14T04:07:02.806Z,84.80
2017-10-14T04:08:05.341Z,85.00
2017-10-14T04:09:07.910Z,84.90
2017-10-14T04:10:11.203Z,85.30
2017-10-14T04:11:13.790Z,85.30
2017-10-14T04:12:16.312Z,85.20
2017-10-14T04:13:19.605Z,85.00
2017-10-14T04:14:22.927Z,85.10
2017-10-14T04:15:25.458Z,85.00
2017-10-14T04:16:28.750Z,85.00
2017-10-14T04:17:31.282Z,85.00
2017-10-14T04:18:33.827Z,84.90
2017-10-14T04:19:36.394Z,85.10
2017-10-14T04:20:38.918Z,85.20
2017-10-14T04:21:41.447Z,85.00
2017-10-14T04:22:43.969Z,85.20
2017-10-14T04:23:46.497Z,85.30
2017-10-14T04:24:49.078Z,85.30
2017-10-14T04:25:51.603Z,85.30
2017-10-14T04:26:54.267Z,85.40
2017-10-14T04:27:56.801Z,85.30
2017-10-14T04:28:59.356Z,85.40
2017-10-14T04:30:01.922Z,85.40
2017-10-14T04:31:04.477Z,85.50
2017-10-14T04:32:06.997Z,85.30
2017-10-14T04:33:09.569Z,85.30
2017-10-14T04:34:12.146Z,85.60
2017-10-14T04:35:15.458Z,85.60
2017-10-14T04:36:17.991Z,85.50
2017-10-14T04:37:20.527Z,85.60
2017-10-14T04:38:23.055Z,85.60
2017-10-14T04:39:25.633Z,85.70
2017-10-14T04:40:28.173Z,85.60
2017-10-14T04:41:31.473Z,85.60
2017-10-14T04:42:34.008Z,85.60
2017-10-14T04:43:36.537Z,85.50
2017-10-14T04:44:39.096Z,86.10
2017-10-14T04:45:41.633Z,85.60
2017-10-14T04:46:44.753Z,85.50
2017-10-14T04:47:47.277Z,85.40
2017-10-14T04:48:49.833Z,85.70
2017-10-14T04:49:53.135Z,85.70
2017-10-14T04:50:55.660Z,85.70
2017-10-14T04:51:58.195Z,85.70
2017-10-14T04:53:00.870Z,85.70
2017-10-14T04:54:03.435Z,85.70
2017-10-14T04:55:05.953Z,85.90
2017-10-14T04:56:08.483Z,85.90
2017-10-14T04:57:11.010Z,85.80
2017-10-14T04:58:13.534Z,85.70
2017-10-14T04:59:16.097Z,85.80
2017-10-14T05:00:18.654Z,85.70
2017-10-14T05:01:21.178Z,85.60
2017-10-14T05:02:23.712Z,85.70
2017-10-14T05:03:27.011Z,85.90
2017-10-14T05:04:29.533Z,85.90
2017-10-14T05:05:32.106Z,86.00
2017-10-14T05:06:34.628Z,86.20
2017-10-14T05:07:37.154Z,86.20
2017-10-14T05:08:40.450Z,86.10
2017-10-14T05:09:43.733Z,86.30
2017-10-14T05:10:47.071Z,86.40
2017-10-14T05:11:49.594Z,86.50
2017-10-14T05:12:52.139Z,86.60
2017-10-14T05:13:55.448Z,86.50
2017-10-14T05:14:58.014Z,86.50
2017-10-14T05:16:00.558Z,86.50
2017-10-14T05:17:03.986Z,86.70
2017-10-14T05:18:06.561Z,86.70
2017-10-14T05:19:09.103Z,86.70
2017-10-14T05:20:11.633Z,86.80
2017-10-14T05:21:14.948Z,86.90
2017-10-14T05:22:17.473Z,86.80
2017-10-14T05:23:20.118Z,86.90
2017-10-14T05:24:22.643Z,87.10
2017-10-14T05:25:25.175Z,87.20
2017-10-14T05:26:27.741Z,87.10
2017-10-14T05:27:30.274Z,87.20
2017-10-14T05:28:32.811Z,87.20
2017-10-14T05:29:35.333Z,87.10
2017-10-14T05:30:37.858Z,87.30
2017-10-14T05:31:40.429Z,87.30
2017-10-14T05:32:42.962Z,87.40
2017-10-14T05:33:46.257Z,87.40
2017-10-14T05:34:48.793Z,87.40
2017-10-14T05:35:51.321Z,87.50
2017-10-14T05:36:53.898Z,87.50
2017-10-14T05:37:56.425Z,87.60
2017-10-14T05:38:58.946Z,87.60
2017-10-14T05:40:01.480Z,87.50
2017-10-14T05:41:04.039Z,87.50
2017-10-14T05:42:06.621Z,87.60
2017-10-14T05:43:09.150Z,87.60
2017-10-14T05:44:11.688Z,87.60
2017-10-14T05:45:14.220Z,87.60
2017-10-14T05:46:16.767Z,87.50
2017-10-14T05:47:19.318Z,87.50
2017-10-14T05:48:21.867Z,87.50
2017-10-14T05:49:25.159Z,87.60
2017-10-14T05:50:27.726Z,87.60
2017-10-14T05:51:31.066Z,87.60
2017-10-14T05:52:33.595Z,87.60
2017-10-14T05:53:36.114Z,87.60
2017-10-14T05:54:39.417Z,87.60
2017-10-14T05:55:42.716Z,87.60
2017-10-14T05:56:45.298Z,87.60
2017-10-14T05:57:47.838Z,87.60
2017-10-14T05:58:51.121Z,87.30
2017-10-14T05:59:54.440Z,87.20
2017-10-14T06:00:56.978Z,87.20
2017-10-14T06:01:59.526Z,87.30
2017-10-14T06:03:02.869Z,87.30
2017-10-14T06:04:05.391Z,87.30
2017-10-14T06:05:07.984Z,87.20
2017-10-14T06:06:10.509Z,87.30
2017-10-14T06:07:13.061Z,87.10
2017-10-14T06:08:15.627Z,87.20
2017-10-14T06:09:18.146Z,86.90
2017-10-14T06:10:20.683Z,87.00
2017-10-14T06:11:23.237Z,87.10
2017-10-14T06:12:25.765Z,86.90
2017-10-14T06:13:28.293Z,86.90
2017-10-14T06:14:30.833Z,86.90
2017-10-14T06:15:33.353Z,86.60
2017-10-14T06:16:35.873Z,86.80
2017-10-14T06:17:39.160Z,86.70
2017-10-14T06:18:42.458Z,86.60
2017-10-14T06:19:45.009Z,86.60
2017-10-14T06:20:48.342Z,86.70
2017-10-14T06:21:50.873Z,86.50
2017-10-14T06:22:53.397Z,86.50
2017-10-14T06:23:55.922Z,86.50
2017-10-14T06:24:58.441Z,86.50
2017-10-14T06:26:00.998Z,86.50
2017-10-14T06:27:03.562Z,86.40
2017-10-14T06:28:06.094Z,86.40
2017-10-14T06:29:08.665Z,86.50
2017-10-14T06:30:11.202Z,86.50
2017-10-14T06:31:13.738Z,86.30
2017-10-14T06:32:17.083Z,87.10
2017-10-14T06:33:19.615Z,86.40
2017-10-14T06:34:22.154Z,86.40
2017-10-14T06:35:24.696Z,86.40
2017-10-14T06:36:27.229Z,86.40
2017-10-14T06:37:29.774Z,86.50
2017-10-14T06:38:33.075Z,86.50
2017-10-14T06:39:35.603Z,86.50
2017-10-14T06:40:38.126Z,86.50
2017-10-14T06:41:40.665Z,86.40
2017-10-14T06:42:43.237Z,86.30
2017-10-14T06:43:45.770Z,86.50
2017-10-14T06:44:49.069Z,86.70
2017-10-14T06:45:52.365Z,86.30
2017-10-14T06:46:54.939Z,86.30
2017-10-14T06:47:57.474Z,86.50
2017-10-14T06:49:00.769Z,86.40
2017-10-14T06:50:04.057Z,86.30
2017-10-14T06:51:07.354Z,86.30
2017-10-14T06:52:09.922Z,86.30
2017-10-14T06:53:12.497Z,86.20
2017-10-14T06:54:15.010Z,86.20
2017-10-14T06:55:17.535Z,85.60
2017-10-14T06:56:20.062Z,85.10
2017-10-14T06:57:23.364Z,82.80
2017-10-14T06:58:25.914Z,82.80
2017-10-14T06:59:29.326Z,81.00
2017-10-14T07:00:31.845Z,81.00
2017-10-14T07:01:34.358Z,80.60
2017-10-14T07:02:36.881Z,80.80
2017-10-14T07:03:39.442Z,81.50
2017-10-14T07:04:41.963Z,81.60
2017-10-14T07:05:44.536Z,82.50
2017-10-14T07:06:47.078Z,82.80
2017-10-14T07:07:49.614Z,83.00
2017-10-14T07:08:52.139Z,83.30
2017-10-14T07:09:54.714Z,84.30
2017-10-14T07:10:57.263Z,83.80
2017-10-14T07:11:59.830Z,84.00
2017-10-14T07:13:02.358Z,84.40
2017-10-14T07:14:05.649Z,84.40
2017-10-14T07:15:08.193Z,84.40
2017-10-14T07:16:10.714Z,84.70
2017-10-14T07:17:13.255Z,84.60
2017-10-14T07:18:15.786Z,84.40
2017-10-14T07:19:18.316Z,84.50
2017-10-14T07:20:20.874Z,84.50
2017-10-14T07:21:23.399Z,84.70
2017-10-14T07:22:26.681Z,84.70
2017-10-14T07:23:30.007Z,84.60
2017-10-14T07:24:32.563Z,84.60
2017-10-14T07:25:35.094Z,84.20
2017-10-14T07:26:37.727Z,84.00
2017-10-14T07:27:40.299Z,84.00
2017-10-14T07:28:42.835Z,84.10
2017-10-14T07:29:45.354Z,83.90
2017-10-14T07:30:47.880Z,83.80
2017-10-14T07:31:50.423Z,83.70
2017-10-14T07:32:52.985Z,83.20
2017-10-14T07:33:55.513Z,83.10
2017-10-14T07:34:58.034Z,83.20
2017-10-14T07:36:00.558Z,82.60
2017-10-14T07:37:03.882Z,82.70
2017-10-14T07:38:06.438Z,82.70
2017-10-14T07:39:08.985Z,82.60
2017-10-14T07:40:11.553Z,82.40
2017-10-14T07:41:14.836Z,82.10
2017-10-14T07:42:18.129Z,82.00
2017-10-14T07:43:20.657Z,81.90
2017-10-14T07:44:23.189Z,82.20
2017-10-14T07:45:25.754Z,82.20
2017-10-14T07:46:28.282Z,82.30
2017-10-14T07:47:31.569Z,82.10
2017-10-14T07:48:34.865Z,82.20
2017-10-14T07:49:37.394Z,82.10
2017-10-14T07:50:39.958Z,82.20
2017-10-14T07:51:42.501Z,81.80
2017-10-14T07:52:45.013Z,82.10
2017-10-14T07:53:48.300Z,81.80
2017-10-14T07:54:51.601Z,82.00
2017-10-14T07:55:54.193Z,82.00
2017-10-14T07:56:56.737Z,81.80
2017-10-14T07:57:59.257Z,81.80
2017-10-14T07:59:01.786Z,82.10
2017-10-14T08:00:04.324Z,81.70
2017-10-14T08:01:06.886Z,81.90
2017-10-14T08:02:09.414Z,81.70
2017-10-14T08:03:11.937Z,81.60
2017-10-14T08:04:14.492Z,81.90
2017-10-14T08:05:17.017Z,81.80
2017-10-14T08:06:19.581Z,81.70
2017-10-14T08:07:22.111Z,82.00
2017-10-14T08:08:24.642Z,81.40
2017-10-14T08:09:27.937Z,81.60
2017-10-14T08:10:30.466Z,81.60
2017-10-14T08:11:33.030Z,81.60
2017-10-14T08:12:35.554Z,80.80
2017-10-14T08:13:38.077Z,80.50
2017-10-14T08:14:41.380Z,80.70
2017-10-14T08:15:43.912Z,80.60
2017-10-14T08:16:46.661Z,80.10
2017-10-14T08:17:49.195Z,80.40
2017-10-14T08:18:51.714Z,80.10
2017-10-14T08:19:54.241Z,79.50
2017-10-14T08:20:56.786Z,79.70
2017-10-14T08:21:59.308Z,80.00
2017-10-14T08:23:01.875Z,79.90
2017-10-14T08:24:04.393Z,79.80
2017-10-14T08:25:06.926Z,80.00
2017-10-14T08:26:10.224Z,79.10
2017-10-14T08:27:12.773Z,79.10
2017-10-14T08:28:16.112Z,79.20
2017-10-14T08:29:18.632Z,79.10
2017-10-14T08:30:21.917Z,79.20
2017-10-14T08:31:25.207Z,78.90
2017-10-14T08:32:28.490Z,78.40
2017-10-14T08:33:31.810Z,78.20
2017-10-14T08:34:34.341Z,78.20
2017-10-14T08:35:37.626Z,77.70
2017-10-14T08:36:40.158Z,77.70
2017-10-14T08:37:42.691Z,77.70
2017-10-14T08:38:45.260Z,77.10
2017-10-14T08:39:47.793Z,77.20
2017-10-14T08:40:50.315Z,77.30
2017-10-14T08:41:52.833Z,76.70
2017-10-14T08:42:55.349Z,76.70
2017-10-14T08:43:57.935Z,76.20
2017-10-14T08:45:01.231Z,76.50
2017-10-14T08:46:04.513Z,76.90
2017-10-14T08:47:07.794Z,76.40
2017-10-14T08:48:11.090Z,76.10
2017-10-14T08:49:13.634Z,76.10
2017-10-14T08:50:16.930Z,76.40
2017-10-14T08:51:20.265Z,76.60
2017-10-14T08:52:22.790Z,76.60
2017-10-14T08:53:25.310Z,76.40
2017-10-14T08:54:27.837Z,75.90
2017-10-14T08:55:30.365Z,75.90
2017-10-14T08:56:33.689Z,74.70
2017-10-14T08:57:36.222Z,74.60
2017-10-14T08:58:39.509Z,74.20
2017-10-14T08:59:42.801Z,74.50
2017-10-14T09:00:45.327Z,74.50
2017-10-14T09:01:47.897Z,74.70
2017-10-14T09:02:50.439Z,75.10
2017-10-14T09:03:52.969Z,75.20
2017-10-14T09:04:55.486Z,74.80
2017-10-14T09:05:58.018Z,75.00
2017-10-14T09:07:00.589Z,74.50
2017-10-14T09:08:03.114Z,75.30
2017-10-14T09:09:06.432Z,73.90
2017-10-14T09:10:08.967Z,73.90
2017-10-14T09:11:11.507Z,73.50
2017-10-14T09:12:14.041Z,72.30
2017-10-14T09:13:16.833Z,71.00
2017-10-14T09:14:19.356Z,69.80
2017-10-14T09:15:21.888Z,68.40
2017-10-14T09:16:24.405Z,66.80
2017-10-14T09:17:26.933Z,65.00
2017-10-14T09:18:30.246Z,61.70
2017-10-14T09:19:32.764Z,61.70
2017-10-14T09:20:35.289Z,61.00
2017-10-14T09:21:37.809Z,59.80
2017-10-14T09:22:41.142Z,59.90
2017-10-14T09:23:43.663Z,59.80
2017-10-14T09:24:46.964Z,60.00
2017-10-14T09:25:49.490Z,60.00
2017-10-14T09:26:52.016Z,60.30
2017-10-14T09:27:54.570Z,59.80
2017-10-14T09:28:57.126Z,57.90
2017-10-14T09:29:59.657Z,57.00
2017-10-14T09:31:02.185Z,56.10
2017-10-14T09:32:04.711Z,54.30
2017-10-14T09:33:07.989Z,55.10
2017-10-14T09:34:11.329Z,54.60
2017-10-14T09:35:13.863Z,54.60
2017-10-14T09:36:16.443Z,54.40
2017-10-14T09:37:19.011Z,54.30
2017-10-14T09:38:21.537Z,54.10
2017-10-14T09:39:24.853Z,55.90
2017-10-14T09:40:27.382Z,55.80
2017-10-14T09:41:30.677Z,57.10
2017-10-14T09:42:33.998Z,56.90
2017-10-14T09:43:36.518Z,56.90
2017-10-14T09:44:39.838Z,57.30
2017-10-14T09:45:42.368Z,57.30
2017-10-14T09:46:45.685Z,58.40
2017-10-14T09:47:48.214Z,58.20
2017-10-14T09:48:50.729Z,59.50
2017-10-14T09:49:53.290Z,60.40
2017-10-14T09:50:55.815Z,59.90
2017-10-14T09:51:59.101Z,59.40
2017-10-14T09:53:02.390Z,60.40
2017-10-14T09:54:05.693Z,61.00
2017-10-14T09:55:08.241Z,61.00
2017-10-14T09:56:11.538Z,61.90
2017-10-14T09:57:14.070Z,61.90
2017-10-14T09:58:16.616Z,63.00
2017-10-14T09:59:19.345Z,63.40
2017-10-14T10:00:21.870Z,63.10
2017-10-14T10:01:24.433Z,63.00
2017-10-14T10:02:26.972Z,62.50
2017-10-14T10:03:29.549Z,63.30
2017-10-14T10:04:32.080Z,64.00
2017-10-14T10:05:34.611Z,64.50
2017-10-14T10:06:37.129Z,64.30
2017-10-14T10:07:39.706Z,63.10
2017-10-14T10:08:42.242Z,62.60
2017-10-14T10:09:44.775Z,61.50
2017-10-14T10:10:47.304Z,62.20
2017-10-14T10:11:49.833Z,63.20
2017-10-14T10:12:52.403Z,63.00
2017-10-14T10:13:54.925Z,64.10
2017-10-14T10:14:57.448Z,64.00
2017-10-14T10:15:59.970Z,65.00
2017-10-14T10:17:03.332Z,66.70
2017-10-14T10:18:05.851Z,66.70
2017-10-14T10:19:08.384Z,68.00
2017-10-14T10:20:11.693Z,67.20
2017-10-14T10:21:14.221Z,67.20
2017-10-14T10:22:16.805Z,66.50
2017-10-14T10:23:19.330Z,66.70
2017-10-14T10:24:21.854Z,66.40
2017-10-14T10:25:25.153Z,64.20
2017-10-14T10:26:27.670Z,64.20
2017-10-14T10:27:30.233Z,62.90
2017-10-14T10:28:32.757Z,61.80
2017-10-14T10:29:35.277Z,59.20
2017-10-14T10:30:37.839Z,57.40
2017-10-14T10:31:40.369Z,56.40
2017-10-14T10:32:42.897Z,55.60
2017-10-14T10:33:46.186Z,54.50
2017-10-14T10:34:49.474Z,54.30
2017-10-14T10:35:52.037Z,54.40
2017-10-14T10:36:54.549Z,55.30
2017-10-14T10:37:57.072Z,55.00
2017-10-14T10:38:59.597Z,53.80
2017-10-14T10:40:02.134Z,53.30
2017-10-14T10:41:05.461Z,52.40
2017-10-14T10:42:08.793Z,53.60
2017-10-14T10:43:11.326Z,53.60
2017-10-14T10:44:14.615Z,56.30
2017-10-14T10:45:17.906Z,58.10
2017-10-14T10:46:20.442Z,58.00
2017-10-14T10:47:23.166Z,58.30
2017-10-14T10:48:25.690Z,58.40
2017-10-14T10:49:28.987Z,59.80
2017-10-14T10:50:31.507Z,59.70
2017-10-14T10:51:34.052Z,59.80
2017-10-14T10:52:36.578Z,59.90
2017-10-14T10:53:39.131Z,59.50
2017-10-14T10:54:42.425Z,60.70
2017-10-14T10:55:45.750Z,61.20
2017-10-14T10:56:48.273Z,61.20
2017-10-14T10:57:51.562Z,63.50
2017-10-14T10:58:54.845Z,63.10
2017-10-14T10:59:58.158Z,63.20
2017-10-14T11:01:00.692Z,63.20
2017-10-14T11:02:03.986Z,63.20
2017-10-14T11:03:06.519Z,63.20
2017-10-14T11:04:09.051Z,64.10
2017-10-14T11:05:11.603Z,64.60
2017-10-14T11:06:14.181Z,64.20
2017-10-14T11:07:16.710Z,64.90
2017-10-14T11:08:19.242Z,65.20
2017-10-14T11:09:21.770Z,65.70
2017-10-14T11:10:24.313Z,65.90
2017-10-14T11:11:26.884Z,65.00
2017-10-14T11:12:29.408Z,64.80
2017-10-14T11:13:31.939Z,64.70
2017-10-14T11:14:34.487Z,64.70
2017-10-14T11:15:37.015Z,64.70
2017-10-14T11:16:40.334Z,65.30
2017-10-14T11:17:42.857Z,65.20
2017-10-14T11:18:45.419Z,65.20
2017-10-14T11:19:47.938Z,65.10
2017-10-14T11:20:50.465Z,65.50
2017-10-14T11:21:53.761Z,65.70
2017-10-14T11:22:57.050Z,65.80
2017-10-14T11:24:00.374Z,64.90
2017-10-14T11:25:02.900Z,64.90
2017-10-14T11:26:06.245Z,63.90
2017-10-14T11:27:08.770Z,63.90
2017-10-14T11:28:11.289Z,64.00
2017-10-14T11:29:13.817Z,62.20
2017-10-14T11:30:16.346Z,61.00
2017-10-14T11:31:19.691Z,59.50
2017-10-14T11:32:22.224Z,59.50
2017-10-14T11:33:24.882Z,58.80
2017-10-14T11:34:27.437Z,58.70
2017-10-14T11:35:29.960Z,58.20
2017-10-14T11:36:32.529Z,57.10
2017-10-14T11:37:35.055Z,57.10
2017-10-14T11:38:37.597Z,56.60
2017-10-14T11:39:40.156Z,56.30
2017-10-14T11:40:43.441Z,57.10
2017-10-14T11:41:46.754Z,56.50
2017-10-14T11:42:49.306Z,56.40
2017-10-14T11:43:52.589Z,54.50
2017-10-14T11:44:55.138Z,54.50
2017-10-14T11:45:58.425Z,53.50
2017-10-14T11:47:01.721Z,53.20
2017-10-14T11:48:05.046Z,53.50
2017-10-14T11:49:07.560Z,53.40
2017-10-14T11:50:10.846Z,52.90
2017-10-14T11:51:14.132Z,53.20
2017-10-14T11:52:17.419Z,54.20
2017-10-14T11:53:20.056Z,54.30
2017-10-14T11:54:23.357Z,56.30
2017-10-14T11:55:26.637Z,56.90
2017-10-14T11:56:29.158Z,56.90
2017-10-14T11:57:31.739Z,57.10
2017-10-14T11:58:34.264Z,56.60
2017-10-14T11:59:36.785Z,55.90
2017-10-14T12:00:39.309Z,55.50
2017-10-14T12:01:41.820Z,55.50
2017-10-14T12:02:44.373Z,55.60
2017-10-14T12:03:46.949Z,56.20
2017-10-14T12:04:49.483Z,57.30
2017-10-14T12:05:52.001Z,58.30
2017-10-14T12:06:55.286Z,59.20
2017-10-14T12:07:58.586Z,59.80
2017-10-14T12:09:01.142Z,59.80
2017-10-14T12:10:04.441Z,61.00
2017-10-14T12:11:06.986Z,61.00
2017-10-14T12:12:10.285Z,61.40
2017-10-14T12:13:12.853Z,61.30
2017-10-14T12:14:15.377Z,61.10
2017-10-14T12:15:18.030Z,60.40
2017-10-14T12:16:20.558Z,59.90
2017-10-14T12:17:23.126Z,58.50
2017-10-14T12:18:25.650Z,57.80
2017-10-14T12:19:28.163Z,57.40
2017-10-14T12:20:30.739Z,56.50
2017-10-14T12:21:33.305Z,56.80
2017-10-14T12:22:35.829Z,55.60
2017-10-14T12:23:39.120Z,53.60
2017-10-14T12:24:42.403Z,51.30
2017-10-14T12:25:45.724Z,50.80
2017-10-14T12:26:48.245Z,50.80
2017-10-14T12:27:51.550Z,50.60
2017-10-14T12:28:54.832Z,50.70
2017-10-14T12:29:57.344Z,50.70
2017-10-14T12:30:59.902Z,51.40
2017-10-14T12:32:02.443Z,51.90
2017-10-14T12:33:04.970Z,52.60
2017-10-14T12:34:07.519Z,53.10
2017-10-14T12:35:10.042Z,52.10
2017-10-14T12:36:12.590Z,52.10
2017-10-14T12:37:15.882Z,51.70
2017-10-14T12:38:18.412Z,51.60
2017-10-14T12:39:21.718Z,52.30
2017-10-14T12:40:25.012Z,52.10
2017-10-14T12:41:27.582Z,52.00
2017-10-14T12:42:30.118Z,52.30
2017-10-14T12:43:32.650Z,51.80
2017-10-14T12:44:35.172Z,52.80
2017-10-14T12:45:37.710Z,52.40
2017-10-14T12:46:40.277Z,51.50
2017-10-14T12:47:42.792Z,51.50
2017-10-14T12:48:45.318Z,51.20
2017-10-14T12:49:47.842Z,51.60
2017-10-14T12:50:50.392Z,51.70
2017-10-14T12:51:52.940Z,52.10
2017-10-14T12:52:55.497Z,52.50
2017-10-14T12:53:58.777Z,52.30
2017-10-14T12:55:02.103Z,51.40
2017-10-14T12:56:04.618Z,51.40
2017-10-14T12:57:07.917Z,51.30
2017-10-14T12:58:11.222Z,51.70
2017-10-14T12:59:13.742Z,51.70
2017-10-14T13:00:16.330Z,52.50
2017-10-14T13:01:19.610Z,52.20
2017-10-14T13:02:22.894Z,51.40
2017-10-14T13:03:25.441Z,51.40
2017-10-14T13:04:27.957Z,51.30
2017-10-14T13:05:30.534Z,50.70
2017-10-14T13:06:33.190Z,50.30
2017-10-14T13:07:35.713Z,50.60
2017-10-14T13:08:38.225Z,51.50
2017-10-14T13:09:40.747Z,50.90
2017-10-14T13:10:43.302Z,50.50
2017-10-14T13:11:45.819Z,51.50
2017-10-14T13:12:48.383Z,52.00
2017-10-14T13:13:50.897Z,52.20
2017-10-14T13:14:53.410Z,53.00
2017-10-14T13:15:55.926Z,52.90
2017-10-14T13:16:58.455Z,52.50
2017-10-14T13:18:01.017Z,51.90
2017-10-14T13:19:03.525Z,52.50
2017-10-14T13:20:06.050Z,51.30
2017-10-14T13:21:08.570Z,51.70
2017-10-14T13:22:11.098Z,52.20
2017-10-14T13:23:13.659Z,51.30
2017-10-14T13:24:16.246Z,51.30
2017-10-14T13:25:18.770Z,51.80
2017-10-14T13:26:21.289Z,52.10
2017-10-14T13:27:23.815Z,52.90